sensor_id;sensor_type;location;lat;lon;timestamp;pressure;altitude;pressure_sealevel;temperature;humidity
10470;BME280;5282;47.052;15.458;2023-03-04T00:01:49;97733.78;;;2.40;100.00
10470;BME280;5282;47.052;15.458;2023-03-04T00:04:18;97735.59;;;2.39;100.00
10470;BME280;5282;47.052;15.458;2023-03-04T00:06:46;97730.47;;;2.36;100.00
10470;BME280;5282;47.052;15.458;2023-03-04T00:09:13;97725.16;;;2.36;100.00
10470;BME280;5282;47.052;15.458;2023-03-04T00:11:40;97731.69;;;2.32;100.00
10470;BME280;5282;47.052;15.458;2023-03-04T00:14:08;97727.75;;;2.25;100.00
10470;BME280;5282;47.052;15.458;2023-03-04T00:16:36;97728.50;;;2.27;100.00
10470;BME280;5282;47.052;15.458;2023-03-04T00:19:04;97724.59;;;2.20;100.00
10470;BME280;5282;47.052;15.458;2023-03-04T00:21:31;97734.25;;;2.21;100.00
10470;BME280;5282;47.052;15.458;2023-03-04T00:23:58;97730.25;;;2.15;100.00
10470;BME280;5282;47.052;15.458;2023-03-04T00:26:26;97736.09;;;2.07;100.00
10470;BME280;5282;47.052;15.458;2023-03-04T00:28:55;97737.78;;;2.08;100.00
10470;BME280;5282;47.052;15.458;2023-03-04T00:31:24;97730.16;;;2.04;100.00
10470;BME280;5282;47.052;15.458;2023-03-04T00:33:52;97735.06;;;1.97;100.00
10470;BME280;5282;47.052;15.458;2023-03-04T00:36:18;97731.78;;;1.93;100.00
10470;BME280;5282;47.052;15.458;2023-03-04T00:38:45;97730.56;;;1.97;100.00
10470;BME280;5282;47.052;15.458;2023-03-04T00:41:13;97733.06;;;1.88;100.00
10470;BME280;5282;47.052;15.458;2023-03-04T00:43:41;97732.31;;;1.85;100.00
10470;BME280;5282;47.052;15.458;2023-03-04T00:46:08;97734.53;;;1.79;100.00
10470;BME280;5282;47.052;15.458;2023-03-04T00:48:37;97726.59;;;1.66;100.00
10470;BME280;5282;47.052;15.458;2023-03-04T00:51:04;97728.94;;;1.71;100.00
10470;BME280;5282;47.052;15.458;2023-03-04T00:53:33;97735.28;;;1.68;100.00
10470;BME280;5282;47.052;15.458;2023-03-04T00:56:00;97727.34;;;1.42;100.00
10470;BME280;5282;47.052;15.458;2023-03-04T00:58:27;97734.94;;;1.34;100.00
10470;BME280;5282;47.052;15.458;2023-03-04T01:00:54;97727.75;;;1.49;100.00
10470;BME280;5282;47.052;15.458;2023-03-04T01:03:22;97718.50;;;1.29;100.00
10470;BME280;5282;47.052;15.458;2023-03-04T01:05:52;97717.31;;;1.07;100.00
10470;BME280;5282;47.052;15.458;2023-03-04T01:08:19;97715.66;;;0.79;100.00
10470;BME280;5282;47.052;15.458;2023-03-04T01:10:46;97711.63;;;0.73;100.00
10470;BME280;5282;47.052;15.458;2023-03-04T01:13:13;97712.72;;;0.56;100.00
10470;BME280;5282;47.052;15.458;2023-03-04T01:15:42;97708.97;;;0.73;100.00
10470;BME280;5282;47.052;15.458;2023-03-04T01:18:10;97705.72;;;0.82;100.00
10470;BME280;5282;47.052;15.458;2023-03-04T01:20:38;97700.41;;;0.95;100.00
10470;BME280;5282;47.052;15.458;2023-03-04T01:23:07;97698.97;;;1.04;100.00
10470;BME280;5282;47.052;15.458;2023-03-04T01:25:35;97691.94;;;1.03;100.00
10470;BME280;5282;47.052;15.458;2023-03-04T01:28:03;97690.44;;;0.86;100.00
10470;BME280;5282;47.052;15.458;2023-03-04T01:30:30;97695.34;;;1.05;100.00
10470;BME280;5282;47.052;15.458;2023-03-04T01:32:56;97694.66;;;0.75;100.00
10470;BME280;5282;47.052;15.458;2023-03-04T01:35:24;97693.91;;;0.73;100.00
10470;BME280;5282;47.052;15.458;2023-03-04T01:37:51;97685.56;;;0.92;100.00
10470;BME280;5282;47.052;15.458;2023-03-04T01:40:19;97695.84;;;0.84;100.00
10470;BME280;5282;47.052;15.458;2023-03-04T01:42:46;97696.88;;;0.69;100.00
10470;BME280;5282;47.052;15.458;2023-03-04T01:45:16;97693.09;;;0.86;100.00
10470;BME280;5282;47.052;15.458;2023-03-04T01:47:46;97691.28;;;0.86;100.00
10470;BME280;5282;47.052;15.458;2023-03-04T01:50:19;97688.16;;;0.67;100.00
10470;BME280;5282;47.052;15.458;2023-03-04T01:52:47;97680.63;;;0.60;100.00
10470;BME280;5282;47.052;15.458;2023-03-04T01:55:16;97684.09;;;0.48;100.00
10470;BME280;5282;47.052;15.458;2023-03-04T01:57:46;97684.28;;;0.45;100.00
10470;BME280;5282;47.052;15.458;2023-03-04T02:00:23;97676.75;;;0.39;100.00
10470;BME280;5282;47.052;15.458;2023-03-04T02:02:53;97678.34;;;0.41;100.00
10470;BME280;5282;47.052;15.458;2023-03-04T02:05:21;97670.66;;;0.64;100.00
10470;BME280;5282;47.052;15.458;2023-03-04T02:07:48;97667.78;;;0.54;100.00
10470;BME280;5282;47.052;15.458;2023-03-04T02:10:16;97672.94;;;0.43;100.00
10470;BME280;5282;47.052;15.458;2023-03-04T02:12:45;97665.41;;;0.37;100.00
10470;BME280;5282;47.052;15.458;2023-03-04T02:15:12;97668.22;;;0.06;100.00
10470;BME280;5282;47.052;15.458;2023-03-04T02:17:40;97667.81;;;0.12;100.00
10470;BME280;5282;47.052;15.458;2023-03-04T02:20:17;97667.75;;;0.14;100.00
10470;BME280;5282;47.052;15.458;2023-03-04T02:22:53;97663.41;;;-0.02;100.00
10470;BME280;5282;47.052;15.458;2023-03-04T02:25:28;97660.00;;;-0.04;100.00
10470;BME280;5282;47.052;15.458;2023-03-04T02:27:58;97652.28;;;-0.07;100.00
10470;BME280;5282;47.052;15.458;2023-03-04T02:30:25;97650.34;;;0.10;100.00
10470;BME280;5282;47.052;15.458;2023-03-04T02:32:52;97641.72;;;0.21;100.00
10470;BME280;5282;47.052;15.458;2023-03-04T02:35:22;97646.84;;;0.37;100.00
10470;BME280;5282;47.052;15.458;2023-03-04T02:37:49;97646.66;;;0.40;100.00
10470;BME280;5282;47.052;15.458;2023-03-04T02:40:22;97637.81;;;0.26;100.00
10470;BME280;5282;47.052;15.458;2023-03-04T02:42:50;97632.84;;;0.35;100.00
10470;BME280;5282;47.052;15.458;2023-03-04T02:45:35;97633.81;;;0.34;100.00
10470;BME280;5282;47.052;15.458;2023-03-04T02:48:03;97625.47;;;0.40;100.00
10470;BME280;5282;47.052;15.458;2023-03-04T02:50:35;97630.81;;;0.25;100.00
10470;BME280;5282;47.052;15.458;2023-03-04T02:53:04;97630.63;;;0.28;100.00
10470;BME280;5282;47.052;15.458;2023-03-04T02:55:32;97630.06;;;0.23;100.00
10470;BME280;5282;47.052;15.458;2023-03-04T02:57:59;97627.25;;;0.39;100.00
10470;BME280;5282;47.052;15.458;2023-03-04T03:00:26;97615.53;;;0.16;100.00
10470;BME280;5282;47.052;15.458;2023-03-04T03:02:56;97624.66;;;-0.03;100.00
10470;BME280;5282;47.052;15.458;2023-03-04T03:05:24;97612.19;;;-0.01;100.00
10470;BME280;5282;47.052;15.458;2023-03-04T03:07:52;97624.56;;;-0.01;100.00
10470;BME280;5282;47.052;15.458;2023-03-04T03:10:22;97615.47;;;0.03;100.00
10470;BME280;5282;47.052;15.458;2023-03-04T03:12:50;97611.25;;;0.13;100.00
10470;BME280;5282;47.052;15.458;2023-03-04T03:15:17;97621.56;;;0.18;100.00
10470;BME280;5282;47.052;15.458;2023-03-04T03:17:50;97624.34;;;-0.25;100.00
10470;BME280;5282;47.052;15.458;2023-03-04T03:20:19;97621.97;;;-0.30;100.00
10470;BME280;5282;47.052;15.458;2023-03-04T03:22:48;97616.22;;;-0.22;100.00
10470;BME280;5282;47.052;15.458;2023-03-04T03:25:16;97616.06;;;-0.06;100.00
10470;BME280;5282;47.052;15.458;2023-03-04T03:27:43;97616.91;;;-0.06;100.00
10470;BME280;5282;47.052;15.458;2023-03-04T03:30:15;97614.47;;;-0.09;100.00
10470;BME280;5282;47.052;15.458;2023-03-04T03:32:42;97608.59;;;0.01;100.00
10470;BME280;5282;47.052;15.458;2023-03-04T03:35:09;97611.13;;;0.02;100.00
10470;BME280;5282;47.052;15.458;2023-03-04T03:37:43;97605.13;;;-0.14;100.00
10470;BME280;5282;47.052;15.458;2023-03-04T03:40:11;97599.91;;;-0.16;100.00
10470;BME280;5282;47.052;15.458;2023-03-04T03:42:38;97600.34;;;-0.37;100.00
10470;BME280;5282;47.052;15.458;2023-03-04T03:45:06;97602.28;;;-0.53;100.00
10470;BME280;5282;47.052;15.458;2023-03-04T03:47:35;97603.53;;;-0.59;100.00
10470;BME280;5282;47.052;15.458;2023-03-04T03:50:03;97601.22;;;-0.36;100.00
10470;BME280;5282;47.052;15.458;2023-03-04T03:52:30;97599.97;;;-0.30;100.00
10470;BME280;5282;47.052;15.458;2023-03-04T03:54:59;97602.50;;;-0.29;100.00
10470;BME280;5282;47.052;15.458;2023-03-04T03:57:27;97597.56;;;-0.21;100.00
10470;BME280;5282;47.052;15.458;2023-03-04T03:59:56;97596.56;;;-0.18;100.00
10470;BME280;5282;47.052;15.458;2023-03-04T04:02:23;97593.53;;;-0.26;100.00
10470;BME280;5282;47.052;15.458;2023-03-04T04:04:50;97594.31;;;-0.39;100.00
10470;BME280;5282;47.052;15.458;2023-03-04T04:07:18;97593.19;;;-0.49;100.00
10470;BME280;5282;47.052;15.458;2023-03-04T04:09:45;97595.00;;;-0.50;100.00
10470;BME280;5282;47.052;15.458;2023-03-04T04:12:15;97597.34;;;-0.45;100.00
10470;BME280;5282;47.052;15.458;2023-03-04T04:14:43;97593.88;;;-0.60;100.00
10470;BME280;5282;47.052;15.458;2023-03-04T04:17:10;97588.78;;;-0.63;100.00
10470;BME280;5282;47.052;15.458;2023-03-04T04:19:41;97590.59;;;-0.64;100.00
10470;BME280;5282;47.052;15.458;2023-03-04T04:22:14;97589.59;;;-0.48;100.00
10470;BME280;5282;47.052;15.458;2023-03-04T04:24:42;97591.94;;;-0.43;100.00
10470;BME280;5282;47.052;15.458;2023-03-04T04:27:10;97592.59;;;-0.40;100.00
10470;BME280;5282;47.052;15.458;2023-03-04T04:29:39;97588.06;;;-0.38;100.00
10470;BME280;5282;47.052;15.458;2023-03-04T04:32:07;97596.59;;;-0.62;100.00
10470;BME280;5282;47.052;15.458;2023-03-04T04:34:34;97595.78;;;-0.62;100.00
10470;BME280;5282;47.052;15.458;2023-03-04T04:37:02;97593.22;;;-0.64;100.00
10470;BME280;5282;47.052;15.458;2023-03-04T04:39:29;97596.13;;;-0.68;100.00
10470;BME280;5282;47.052;15.458;2023-03-04T04:41:59;97600.78;;;-0.72;100.00
10470;BME280;5282;47.052;15.458;2023-03-04T04:44:27;97603.22;;;-0.83;100.00
10470;BME280;5282;47.052;15.458;2023-03-04T04:46:55;97590.13;;;-0.70;100.00
10470;BME280;5282;47.052;15.458;2023-03-04T04:49:24;97592.88;;;-0.86;100.00
10470;BME280;5282;47.052;15.458;2023-03-04T04:51:51;97589.72;;;-0.79;100.00
10470;BME280;5282;47.052;15.458;2023-03-04T04:54:19;97597.19;;;-1.14;100.00
10470;BME280;5282;47.052;15.458;2023-03-04T04:56:45;97591.94;;;-1.45;100.00
10470;BME280;5282;47.052;15.458;2023-03-04T04:59:14;97598.66;;;-1.39;100.00
10470;BME280;5282;47.052;15.458;2023-03-04T05:01:41;97588.97;;;-1.10;100.00
10470;BME280;5282;47.052;15.458;2023-03-04T05:04:10;97577.75;;;-0.99;100.00
10470;BME280;5282;47.052;15.458;2023-03-04T05:06:37;97581.81;;;-1.07;100.00
10470;BME280;5282;47.052;15.458;2023-03-04T05:09:04;97581.31;;;-1.29;100.00
10470;BME280;5282;47.052;15.458;2023-03-04T05:11:31;97583.66;;;-1.24;100.00
10470;BME280;5282;47.052;15.458;2023-03-04T05:14:00;97582.75;;;-1.09;100.00
10470;BME280;5282;47.052;15.458;2023-03-04T05:16:28;97590.97;;;-0.99;100.00
10470;BME280;5282;47.052;15.458;2023-03-04T05:18:56;97589.16;;;-0.98;100.00
10470;BME280;5282;47.052;15.458;2023-03-04T05:21:25;97590.09;;;-1.14;100.00
10470;BME280;5282;47.052;15.458;2023-03-04T05:23:52;97586.31;;;-1.10;100.00
10470;BME280;5282;47.052;15.458;2023-03-04T05:26:19;97590.31;;;-1.17;100.00
10470;BME280;5282;47.052;15.458;2023-03-04T05:28:47;97585.28;;;-1.21;100.00
10470;BME280;5282;47.052;15.458;2023-03-04T05:31:14;97580.84;;;-1.21;100.00
10470;BME280;5282;47.052;15.458;2023-03-04T05:33:42;97582.09;;;-1.12;100.00
10470;BME280;5282;47.052;15.458;2023-03-04T05:36:11;97589.25;;;-1.14;100.00
10470;BME280;5282;47.052;15.458;2023-03-04T05:38:41;97589.63;;;-1.35;100.00
10470;BME280;5282;47.052;15.458;2023-03-04T05:41:09;97582.34;;;-1.31;100.00
10470;BME280;5282;47.052;15.458;2023-03-04T05:43:37;97580.75;;;-1.19;100.00
10470;BME280;5282;47.052;15.458;2023-03-04T05:46:07;97584.91;;;-1.15;100.00
10470;BME280;5282;47.052;15.458;2023-03-04T05:48:38;97580.66;;;-1.18;100.00
10470;BME280;5282;47.052;15.458;2023-03-04T05:51:06;97579.53;;;-1.14;100.00
10470;BME280;5282;47.052;15.458;2023-03-04T05:53:33;97580.94;;;-1.08;100.00
10470;BME280;5282;47.052;15.458;2023-03-04T05:56:07;97579.53;;;-1.14;100.00
10470;BME280;5282;47.052;15.458;2023-03-04T05:58:35;97586.25;;;-1.22;100.00
10470;BME280;5282;47.052;15.458;2023-03-04T06:01:04;97584.16;;;-1.17;100.00
10470;BME280;5282;47.052;15.458;2023-03-04T06:03:31;97582.84;;;-1.25;100.00
10470;BME280;5282;47.052;15.458;2023-03-04T06:05:58;97586.03;;;-1.19;100.00
10470;BME280;5282;47.052;15.458;2023-03-04T06:08:25;97590.16;;;-1.30;100.00
10470;BME280;5282;47.052;15.458;2023-03-04T06:10:54;97594.19;;;-1.53;100.00
10470;BME280;5282;47.052;15.458;2023-03-04T06:13:23;97598.25;;;-1.47;100.00
10470;BME280;5282;47.052;15.458;2023-03-04T06:15:53;97595.34;;;-1.43;100.00
10470;BME280;5282;47.052;15.458;2023-03-04T06:18:21;97595.91;;;-1.52;100.00
10470;BME280;5282;47.052;15.458;2023-03-04T06:20:48;97594.44;;;-1.27;100.00
10470;BME280;5282;47.052;15.458;2023-03-04T06:23:15;97598.75;;;-1.41;100.00
10470;BME280;5282;47.052;15.458;2023-03-04T06:25:43;97603.09;;;-1.25;100.00
10470;BME280;5282;47.052;15.458;2023-03-04T06:28:10;97602.84;;;-1.06;100.00
10470;BME280;5282;47.052;15.458;2023-03-04T06:30:38;97588.78;;;-0.92;100.00
10470;BME280;5282;47.052;15.458;2023-03-04T06:33:05;97592.66;;;-0.83;100.00
10470;BME280;5282;47.052;15.458;2023-03-04T06:35:32;97602.22;;;-0.95;100.00
10470;BME280;5282;47.052;15.458;2023-03-04T06:37:59;97597.66;;;-1.22;100.00
10470;BME280;5282;47.052;15.458;2023-03-04T06:40:26;97608.88;;;-1.18;100.00
10470;BME280;5282;47.052;15.458;2023-03-04T06:42:53;97617.66;;;-1.03;100.00
10470;BME280;5282;47.052;15.458;2023-03-04T06:45:19;97614.94;;;-1.02;100.00
10470;BME280;5282;47.052;15.458;2023-03-04T06:47:48;97614.75;;;-0.99;100.00
10470;BME280;5282;47.052;15.458;2023-03-04T06:50:14;97604.06;;;-0.68;100.00
10470;BME280;5282;47.052;15.458;2023-03-04T06:52:42;97604.00;;;-0.67;100.00
10470;BME280;5282;47.052;15.458;2023-03-04T06:55:09;97605.00;;;-0.40;100.00
10470;BME280;5282;47.052;15.458;2023-03-04T06:57:39;97603.34;;;-0.28;100.00
10470;BME280;5282;47.052;15.458;2023-03-04T07:00:07;97595.50;;;-0.16;100.00
10470;BME280;5282;47.052;15.458;2023-03-04T07:02:34;97590.84;;;-0.12;100.00
10470;BME280;5282;47.052;15.458;2023-03-04T07:05:04;97596.94;;;0.03;100.00
10470;BME280;5282;47.052;15.458;2023-03-04T07:07:31;97595.31;;;0.15;100.00
10470;BME280;5282;47.052;15.458;2023-03-04T07:09:58;97599.44;;;0.19;100.00
10470;BME280;5282;47.052;15.458;2023-03-04T07:12:25;97602.97;;;0.33;100.00
10470;BME280;5282;47.052;15.458;2023-03-04T07:14:52;97591.03;;;0.40;100.00
10470;BME280;5282;47.052;15.458;2023-03-04T07:17:19;97593.06;;;0.49;100.00
10470;BME280;5282;47.052;15.458;2023-03-04T07:19:46;97587.97;;;0.59;100.00
10470;BME280;5282;47.052;15.458;2023-03-04T07:22:14;97589.91;;;0.57;100.00
10470;BME280;5282;47.052;15.458;2023-03-04T07:24:41;97582.91;;;0.69;100.00
10470;BME280;5282;47.052;15.458;2023-03-04T07:27:10;97587.13;;;0.71;100.00
10470;BME280;5282;47.052;15.458;2023-03-04T07:29:37;97589.69;;;0.86;100.00
10470;BME280;5282;47.052;15.458;2023-03-04T07:32:06;97582.28;;;0.91;100.00
10470;BME280;5282;47.052;15.458;2023-03-04T07:34:36;97585.22;;;0.86;100.00
10470;BME280;5282;47.052;15.458;2023-03-04T07:37:03;97585.38;;;0.98;100.00
10470;BME280;5282;47.052;15.458;2023-03-04T07:39:31;97583.78;;;1.08;100.00
10470;BME280;5282;47.052;15.458;2023-03-04T07:41:58;97581.44;;;1.16;100.00
10470;BME280;5282;47.052;15.458;2023-03-04T07:44:25;97589.59;;;0.87;100.00
10470;BME280;5282;47.052;15.458;2023-03-04T07:46:53;97583.78;;;1.08;100.00
10470;BME280;5282;47.052;15.458;2023-03-04T07:49:20;97589.91;;;1.21;100.00
10470;BME280;5282;47.052;15.458;2023-03-04T07:51:49;97586.25;;;1.48;100.00
10470;BME280;5282;47.052;15.458;2023-03-04T07:54:16;97582.53;;;1.51;100.00
10470;BME280;5282;47.052;15.458;2023-03-04T07:56:46;97583.91;;;1.57;100.00
10470;BME280;5282;47.052;15.458;2023-03-04T07:59:12;97585.16;;;1.64;100.00
10470;BME280;5282;47.052;15.458;2023-03-04T08:01:39;97575.91;;;1.69;100.00
10470;BME280;5282;47.052;15.458;2023-03-04T08:04:07;97569.59;;;1.83;100.00
10470;BME280;5282;47.052;15.458;2023-03-04T08:06:34;97573.84;;;2.10;100.00
10470;BME280;5282;47.052;15.458;2023-03-04T08:09:03;97573.56;;;2.02;100.00
10470;BME280;5282;47.052;15.458;2023-03-04T08:11:32;97570.19;;;2.00;100.00
10470;BME280;5282;47.052;15.458;2023-03-04T08:14:01;97561.81;;;2.18;100.00
10470;BME280;5282;47.052;15.458;2023-03-04T08:16:28;97558.34;;;2.28;100.00
10470;BME280;5282;47.052;15.458;2023-03-04T08:18:56;97560.19;;;2.39;100.00
10470;BME280;5282;47.052;15.458;2023-03-04T08:21:25;97555.38;;;2.44;100.00
10470;BME280;5282;47.052;15.458;2023-03-04T08:23:53;97552.31;;;2.73;100.00
10470;BME280;5282;47.052;15.458;2023-03-04T08:26:22;97547.97;;;2.84;100.00
10470;BME280;5282;47.052;15.458;2023-03-04T08:28:49;97550.66;;;3.06;100.00
10470;BME280;5282;47.052;15.458;2023-03-04T08:31:18;97548.00;;;3.18;100.00
10470;BME280;5282;47.052;15.458;2023-03-04T08:33:45;97542.69;;;3.18;100.00
10470;BME280;5282;47.052;15.458;2023-03-04T08:36:13;97538.81;;;3.22;100.00
10470;BME280;5282;47.052;15.458;2023-03-04T08:38:40;97540.50;;;3.34;100.00
10470;BME280;5282;47.052;15.458;2023-03-04T08:41:07;97539.41;;;3.37;100.00
10470;BME280;5282;47.052;15.458;2023-03-04T08:43:35;97544.63;;;3.50;100.00
10470;BME280;5282;47.052;15.458;2023-03-04T08:46:02;97524.13;;;3.62;100.00
10470;BME280;5282;47.052;15.458;2023-03-04T08:48:32;97535.25;;;3.78;100.00
10470;BME280;5282;47.052;15.458;2023-03-04T08:51:00;97523.34;;;3.82;100.00
10470;BME280;5282;47.052;15.458;2023-03-04T08:53:26;97524.13;;;4.06;100.00
10470;BME280;5282;47.052;15.458;2023-03-04T08:55:55;97520.91;;;4.23;100.00
10470;BME280;5282;47.052;15.458;2023-03-04T08:58:22;97517.41;;;4.44;100.00
10470;BME280;5282;47.052;15.458;2023-03-04T09:00:49;97514.19;;;4.61;100.00
10470;BME280;5282;47.052;15.458;2023-03-04T09:03:17;97513.97;;;4.74;100.00
10470;BME280;5282;47.052;15.458;2023-03-04T09:05:47;97509.13;;;4.89;100.00
10470;BME280;5282;47.052;15.458;2023-03-04T09:08:14;97509.41;;;5.17;100.00
10470;BME280;5282;47.052;15.458;2023-03-04T09:10:41;97506.13;;;5.35;100.00
10470;BME280;5282;47.052;15.458;2023-03-04T09:13:09;97498.78;;;5.37;100.00
10470;BME280;5282;47.052;15.458;2023-03-04T09:15:37;97503.16;;;5.38;100.00
10470;BME280;5282;47.052;15.458;2023-03-04T09:18:04;97501.41;;;5.58;100.00
10470;BME280;5282;47.052;15.458;2023-03-04T09:20:33;97500.03;;;5.83;100.00
10470;BME280;5282;47.052;15.458;2023-03-04T09:23:01;97495.31;;;6.16;100.00
10470;BME280;5282;47.052;15.458;2023-03-04T09:25:28;97487.59;;;6.13;100.00
10470;BME280;5282;47.052;15.458;2023-03-04T09:27:55;97489.94;;;6.46;100.00
10470;BME280;5282;47.052;15.458;2023-03-04T09:30:22;97486.22;;;6.76;100.00
10470;BME280;5282;47.052;15.458;2023-03-04T09:32:49;97478.13;;;6.96;100.00
10470;BME280;5282;47.052;15.458;2023-03-04T09:35:16;97480.41;;;6.91;100.00
10470;BME280;5282;47.052;15.458;2023-03-04T09:37:43;97474.91;;;7.30;100.00
10470;BME280;5282;47.052;15.458;2023-03-04T09:40:16;97468.16;;;7.54;100.00
10470;BME280;5282;47.052;15.458;2023-03-04T09:42:46;97472.16;;;7.68;100.00
10470;BME280;5282;47.052;15.458;2023-03-04T09:45:17;97465.38;;;8.10;100.00
10470;BME280;5282;47.052;15.458;2023-03-04T09:47:46;97460.53;;;8.31;100.00
10470;BME280;5282;47.052;15.458;2023-03-04T09:50:16;97461.13;;;8.61;100.00
10470;BME280;5282;47.052;15.458;2023-03-04T09:52:59;97460.91;;;8.55;100.00
10470;BME280;5282;47.052;15.458;2023-03-04T09:55:33;97458.69;;;8.76;100.00
10470;BME280;5282;47.052;15.458;2023-03-04T09:58:04;97458.66;;;8.94;100.00
10470;BME280;5282;47.052;15.458;2023-03-04T10:00:38;97449.72;;;9.20;100.00
10470;BME280;5282;47.052;15.458;2023-03-04T10:03:17;97444.94;;;9.40;100.00
10470;BME280;5282;47.052;15.458;2023-03-04T10:05:52;97437.47;;;9.69;100.00
10470;BME280;5282;47.052;15.458;2023-03-04T10:08:33;97438.84;;;9.90;92.32
10470;BME280;5282;47.052;15.458;2023-03-04T10:11:08;97433.16;;;10.26;90.68
10470;BME280;5282;47.052;15.458;2023-03-04T10:13:42;97429.09;;;10.30;91.23
10470;BME280;5282;47.052;15.458;2023-03-04T10:16:17;97428.78;;;10.58;83.51
10470;BME280;5282;47.052;15.458;2023-03-04T10:18:50;97423.06;;;10.69;77.01
10470;BME280;5282;47.052;15.458;2023-03-04T10:21:21;97417.47;;;10.87;79.40
10470;BME280;5282;47.052;15.458;2023-03-04T10:23:52;97420.56;;;10.68;76.26
10470;BME280;5282;47.052;15.458;2023-03-04T10:26:28;97402.00;;;10.73;64.81
10470;BME280;5282;47.052;15.458;2023-03-04T10:28:57;97398.28;;;10.90;65.24
10470;BME280;5282;47.052;15.458;2023-03-04T10:31:31;97401.84;;;10.83;52.06
10470;BME280;5282;47.052;15.458;2023-03-04T10:33:59;97396.47;;;11.22;53.03
10470;BME280;5282;47.052;15.458;2023-03-04T10:36:52;97388.53;;;11.61;51.90
10470;BME280;5282;47.052;15.458;2023-03-04T10:39:23;97382.13;;;11.85;52.53
10470;BME280;5282;47.052;15.458;2023-03-04T10:41:57;97384.03;;;12.08;51.18
10470;BME280;5282;47.052;15.458;2023-03-04T10:44:26;97385.38;;;12.27;49.99
10470;BME280;5282;47.052;15.458;2023-03-04T10:46:55;97375.31;;;11.97;50.87
10470;BME280;5282;47.052;15.458;2023-03-04T10:49:23;97373.25;;;12.61;49.65
10470;BME280;5282;47.052;15.458;2023-03-04T10:51:52;97373.56;;;12.96;47.36
10470;BME280;5282;47.052;15.458;2023-03-04T10:54:28;97365.53;;;13.03;47.19
10470;BME280;5282;47.052;15.458;2023-03-04T10:57:02;97374.16;;;13.28;45.59
10470;BME280;5282;47.052;15.458;2023-03-04T10:59:41;97360.81;;;13.56;44.88
10470;BME280;5282;47.052;15.458;2023-03-04T11:02:22;97368.81;;;13.86;45.30
10470;BME280;5282;47.052;15.458;2023-03-04T11:05:15;97359.41;;;14.26;43.35
10470;BME280;5282;47.052;15.458;2023-03-04T11:07:45;97357.88;;;13.06;43.01
10470;BME280;5282;47.052;15.458;2023-03-04T11:10:17;97355.28;;;13.86;44.68
10470;BME280;5282;47.052;15.458;2023-03-04T11:12:54;97353.75;;;14.49;43.11
10470;BME280;5282;47.052;15.458;2023-03-04T11:15:23;97348.38;;;14.06;39.78
10470;BME280;5282;47.052;15.458;2023-03-04T11:17:54;97344.56;;;13.56;40.29
10470;BME280;5282;47.052;15.458;2023-03-04T11:20:30;97338.19;;;14.29;38.97
10470;BME280;5282;47.052;15.458;2023-03-04T11:23:01;97333.53;;;14.73;37.42
10470;BME280;5282;47.052;15.458;2023-03-04T11:25:32;97328.69;;;14.40;38.13
10470;BME280;5282;47.052;15.458;2023-03-04T11:28:02;97324.09;;;13.91;37.86
10470;BME280;5282;47.052;15.458;2023-03-04T11:30:37;97332.66;;;14.16;37.41
10470;BME280;5282;47.052;15.458;2023-03-04T11:33:13;97326.03;;;14.18;38.45
10470;BME280;5282;47.052;15.458;2023-03-04T11:35:49;97318.03;;;15.02;38.28
10470;BME280;5282;47.052;15.458;2023-03-04T11:38:19;97311.31;;;15.40;37.63
10470;BME280;5282;47.052;15.458;2023-03-04T11:40:51;97304.91;;;15.81;37.32
10470;BME280;5282;47.052;15.458;2023-03-04T11:43:24;97306.41;;;15.91;35.58
10470;BME280;5282;47.052;15.458;2023-03-04T11:46:17;97303.94;;;16.09;36.33
10470;BME280;5282;47.052;15.458;2023-03-04T11:48:55;97300.41;;;15.26;35.61
10470;BME280;5282;47.052;15.458;2023-03-04T11:51:30;97289.72;;;16.00;35.56
10470;BME280;5282;47.052;15.458;2023-03-04T11:54:14;97288.03;;;16.40;34.76
10470;BME280;5282;47.052;15.458;2023-03-04T11:56:44;97293.72;;;15.22;35.88
10470;BME280;5282;47.052;15.458;2023-03-04T11:59:37;97286.75;;;15.82;34.04
10470;BME280;5282;47.052;15.458;2023-03-04T12:02:13;97290.78;;;16.06;35.50
10470;BME280;5282;47.052;15.458;2023-03-04T12:05:13;97281.59;;;16.14;34.63
10470;BME280;5282;47.052;15.458;2023-03-04T12:07:59;97279.47;;;16.43;35.36
10470;BME280;5282;47.052;15.458;2023-03-04T12:10:33;97283.19;;;16.62;35.15
10470;BME280;5282;47.052;15.458;2023-03-04T12:13:24;97277.53;;;16.63;34.86
10470;BME280;5282;47.052;15.458;2023-03-04T12:16:09;97263.88;;;16.84;35.22
10470;BME280;5282;47.052;15.458;2023-03-04T12:18:49;97260.09;;;16.91;34.11
10470;BME280;5282;47.052;15.458;2023-03-04T12:21:31;97269.06;;;17.05;34.85
10470;BME280;5282;47.052;15.458;2023-03-04T12:24:21;97263.34;;;17.20;33.42
10470;BME280;5282;47.052;15.458;2023-03-04T12:26:57;97259.50;;;17.35;33.54
10470;BME280;5282;47.052;15.458;2023-03-04T12:29:35;97248.81;;;16.88;33.65
10470;BME280;5282;47.052;15.458;2023-03-04T12:32:14;97249.47;;;16.96;32.45
10470;BME280;5282;47.052;15.458;2023-03-04T12:35:03;97244.03;;;16.83;33.84
10470;BME280;5282;47.052;15.458;2023-03-04T12:37:50;97244.06;;;16.76;33.83
10470;BME280;5282;47.052;15.458;2023-03-04T12:40:31;97241.22;;;16.44;33.13
10470;BME280;5282;47.052;15.458;2023-03-04T12:43:15;97241.88;;;16.26;32.98
10470;BME280;5282;47.052;15.458;2023-03-04T12:45:53;97234.13;;;15.83;33.65
10470;BME280;5282;47.052;15.458;2023-03-04T12:48:30;97229.16;;;16.86;32.96
10470;BME280;5282;47.052;15.458;2023-03-04T12:51:19;97216.28;;;16.61;32.20
10470;BME280;5282;47.052;15.458;2023-03-04T12:53:55;97233.84;;;16.72;32.83
10470;BME280;5282;47.052;15.458;2023-03-04T12:56:26;97218.09;;;16.80;32.83
10470;BME280;5282;47.052;15.458;2023-03-04T12:58:54;97214.28;;;17.02;31.46
10470;BME280;5282;47.052;15.458;2023-03-04T13:01:25;97214.50;;;16.14;32.60
10470;BME280;5282;47.052;15.458;2023-03-04T13:04:00;97208.84;;;16.36;32.75
10470;BME280;5282;47.052;15.458;2023-03-04T13:06:35;97206.53;;;16.40;32.95
10470;BME280;5282;47.052;15.458;2023-03-04T13:09:14;97210.53;;;16.89;31.76
10470;BME280;5282;47.052;15.458;2023-03-04T13:11:52;97201.97;;;16.92;31.43
10470;BME280;5282;47.052;15.458;2023-03-04T13:14:40;97200.34;;;16.78;31.89